sensor_id;sensor_type;location;lat;lon;timestamp;pressure;altitude;pressure_sealevel;temperature;humidity
54022;BME280;39936;51.058;17.220;2022-11-20T00:02:14;101520.41;;;-6.42;100.00
54022;BME280;39936;51.058;17.220;2022-11-20T00:05:25;101524.11;;;-6.43;100.00
54022;BME280;39936;51.058;17.220;2022-11-20T00:09:10;101518.47;;;-6.43;100.00
54022;BME280;39936;51.058;17.220;2022-11-20T00:13:05;101517.52;;;-6.41;100.00
54022;BME280;39936;51.058;17.220;2022-11-20T00:28:28;101506.84;;;-6.10;100.00
54022;BME280;39936;51.058;17.220;2022-11-20T00:41:37;101502.04;;;-6.26;100.00
54022;BME280;39936;51.058;17.220;2022-11-20T00:45:09;101508.17;;;-6.36;100.00
54022;BME280;39936;51.058;17.220;2022-11-20T00:49:11;101510.02;;;-6.44;100.00
54022;BME280;39936;51.058;17.220;2022-11-20T00:52:53;101514.14;;;-6.54;100.00
54022;BME280;39936;51.058;17.220;2022-11-20T00:56:10;101519.70;;;-6.59;100.00
54022;BME280;39936;51.058;17.220;2022-11-20T00:59:42;101522.49;;;-6.58;100.00
54022;BME280;39936;51.058;17.220;2022-11-20T01:03:17;101524.15;;;-6.55;100.00
54022;BME280;39936;51.058;17.220;2022-11-20T01:06:54;101526.80;;;-6.57;100.00
54022;BME280;39936;51.058;17.220;2022-11-20T01:10:42;101527.53;;;-6.64;100.00
54022;BME280;39936;51.058;17.220;2022-11-20T01:14:17;101531.48;;;-6.68;100.00
54022;BME280;39936;51.058;17.220;2022-11-20T01:17:56;101534.69;;;-6.72;100.00
54022;BME280;39936;51.058;17.220;2022-11-20T01:21:37;101529.97;;;-6.67;100.00
54022;BME280;39936;51.058;17.220;2022-11-20T01:24:45;101526.73;;;-6.63;100.00
54022;BME280;39936;51.058;17.220;2022-11-20T01:28:12;101527.45;;;-6.67;100.00
54022;BME280;39936;51.058;17.220;2022-11-20T01:31:53;101531.30;;;-6.71;100.00
54022;BME280;39936;51.058;17.220;2022-11-20T01:35:43;101521.70;;;-6.67;100.00
54022;BME280;39936;51.058;17.220;2022-11-20T01:39:23;101517.40;;;-6.61;100.00
54022;BME280;39936;51.058;17.220;2022-11-20T01:43:00;101512.23;;;-6.59;100.00
54022;BME280;39936;51.058;17.220;2022-11-20T01:46:42;101513.30;;;-6.58;100.00
54022;BME280;39936;51.058;17.220;2022-11-20T01:50:06;101514.70;;;-6.72;100.00
54022;BME280;39936;51.058;17.220;2022-11-20T01:53:39;101510.66;;;-6.90;100.00
54022;BME280;39936;51.058;17.220;2022-11-20T01:57:04;101519.59;;;-6.91;100.00
54022;BME280;39936;51.058;17.220;2022-11-20T02:01:13;101523.52;;;-6.87;100.00
54022;BME280;39936;51.058;17.220;2022-11-20T02:04:50;101516.41;;;-6.77;100.00
54022;BME280;39936;51.058;17.220;2022-11-20T02:08:38;101513.92;;;-6.71;100.00
54022;BME280;39936;51.058;17.220;2022-11-20T02:12:07;101511.89;;;-6.69;100.00
54022;BME280;39936;51.058;17.220;2022-11-20T02:15:47;101509.67;;;-6.70;100.00
54022;BME280;39936;51.058;17.220;2022-11-20T02:19:14;101508.64;;;-6.70;100.00
54022;BME280;39936;51.058;17.220;2022-11-20T02:26:42;101500.02;;;-6.65;100.00
54022;BME280;39936;51.058;17.220;2022-11-20T02:30:09;101496.46;;;-6.67;100.00
54022;BME280;39936;51.058;17.220;2022-11-20T02:33:41;101497.84;;;-6.69;100.00
54022;BME280;39936;51.058;17.220;2022-11-20T02:37:35;101499.57;;;-6.70;100.00
54022;BME280;39936;51.058;17.220;2022-11-20T02:41:08;101502.35;;;-6.70;100.00
54022;BME280;39936;51.058;17.220;2022-11-20T02:45:07;101505.95;;;-6.70;100.00
54022;BME280;39936;51.058;17.220;2022-11-20T02:48:51;101502.57;;;-6.68;100.00
54022;BME280;39936;51.058;17.220;2022-11-20T02:52:08;101501.92;;;-6.75;100.00
54022;BME280;39936;51.058;17.220;2022-11-20T02:55:22;101499.16;;;-6.80;100.00
54022;BME280;39936;51.058;17.220;2022-11-20T02:59:07;101505.71;;;-6.85;100.00
54022;BME280;39936;51.058;17.220;2022-11-20T03:02:33;101505.98;;;-6.89;100.00
54022;BME280;39936;51.058;17.220;2022-11-20T03:05:48;101502.83;;;-6.91;100.00
54022;BME280;39936;51.058;17.220;2022-11-20T03:09:06;101493.95;;;-7.00;100.00
54022;BME280;39936;51.058;17.220;2022-11-20T03:12:22;101499.36;;;-6.99;100.00
54022;BME280;39936;51.058;17.220;2022-11-20T03:16:38;101500.73;;;-7.08;100.00
54022;BME280;39936;51.058;17.220;2022-11-20T03:20:23;101488.33;;;-7.36;100.00
54022;BME280;39936;51.058;17.220;2022-11-20T03:23:58;101507.88;;;-7.21;100.00
54022;BME280;39936;51.058;17.220;2022-11-20T03:27:56;101504.52;;;-7.22;100.00
54022;BME280;39936;51.058;17.220;2022-11-20T03:31:47;101508.09;;;-7.33;100.00
54022;BME280;39936;51.058;17.220;2022-11-20T03:34:57;101509.56;;;-7.44;100.00
54022;BME280;39936;51.058;17.220;2022-11-20T03:38:15;101510.49;;;-7.48;100.00
54022;BME280;39936;51.058;17.220;2022-11-20T03:41:30;101506.33;;;-7.58;100.00
54022;BME280;39936;51.058;17.220;2022-11-20T03:44:40;101507.52;;;-7.62;100.00
54022;BME280;39936;51.058;17.220;2022-11-20T03:48:04;101505.46;;;-7.69;100.00
54022;BME280;39936;51.058;17.220;2022-11-20T03:52:18;101508.09;;;-7.75;100.00
54022;BME280;39936;51.058;17.220;2022-11-20T04:03:56;101513.86;;;-7.81;100.00
54022;BME280;39936;51.058;17.220;2022-11-20T04:07:29;101512.88;;;-7.95;100.00
54022;BME280;39936;51.058;17.220;2022-11-20T04:11:13;101511.87;;;-7.89;100.00
54022;BME280;39936;51.058;17.220;2022-11-20T04:14:29;101513.97;;;-7.86;100.00
54022;BME280;39936;51.058;17.220;2022-11-20T04:18:01;101516.68;;;-7.90;100.00
54022;BME280;39936;51.058;17.220;2022-11-20T04:21:10;101518.24;;;-8.02;100.00
54022;BME280;39936;51.058;17.220;2022-11-20T04:24:59;101525.38;;;-8.13;100.00
54022;BME280;39936;51.058;17.220;2022-11-20T04:28:29;101521.86;;;-8.08;100.00
54022;BME280;39936;51.058;17.220;2022-11-20T04:32:12;101520.87;;;-8.04;100.00
54022;BME280;39936;51.058;17.220;2022-11-20T04:36:16;101524.83;;;-8.02;100.00
54022;BME280;39936;51.058;17.220;2022-11-20T04:43:18;101518.83;;;-8.03;100.00
54022;BME280;39936;51.058;17.220;2022-11-20T04:47:53;101517.34;;;-8.28;100.00
54022;BME280;39936;51.058;17.220;2022-11-20T04:51:24;101510.91;;;-8.31;100.00
54022;BME280;39936;51.058;17.220;2022-11-20T04:58:24;101502.76;;;-8.08;100.00
54022;BME280;39936;51.058;17.220;2022-11-20T05:02:11;101501.87;;;-8.14;100.00
54022;BME280;39936;51.058;17.220;2022-11-20T05:05:41;101499.02;;;-8.13;100.00
54022;BME280;39936;51.058;17.220;2022-11-20T05:09:30;101499.11;;;-8.11;100.00
54022;BME280;39936;51.058;17.220;2022-11-20T05:24:01;101484.62;;;-8.34;100.00
54022;BME280;39936;51.058;17.220;2022-11-20T05:28:25;101490.17;;;-8.27;100.00
54022;BME280;39936;51.058;17.220;2022-11-20T05:32:35;101489.31;;;-8.22;100.00
54022;BME280;39936;51.058;17.220;2022-11-20T05:36:38;101488.98;;;-8.14;100.00
54022;BME280;39936;51.058;17.220;2022-11-20T05:40:14;101487.23;;;-8.12;100.00
54022;BME280;39936;51.058;17.220;2022-11-20T05:44:13;101485.07;;;-8.05;100.00
54022;BME280;39936;51.058;17.220;2022-11-20T05:47:39;101477.91;;;-8.02;100.00
54022;BME280;39936;51.058;17.220;2022-11-20T05:51:29;101482.70;;;-7.98;100.00
54022;BME280;39936;51.058;17.220;2022-11-20T05:54:44;101477.84;;;-8.09;100.00
54022;BME280;39936;51.058;17.220;2022-11-20T05:58:31;101472.09;;;-8.10;100.00
54022;BME280;39936;51.058;17.220;2022-11-20T06:02:28;101468.54;;;-8.08;100.00
54022;BME280;39936;51.058;17.220;2022-11-20T06:06:11;101469.67;;;-8.19;100.00
54022;BME280;39936;51.058;17.220;2022-11-20T06:10:09;101461.95;;;-8.11;100.00
54022;BME280;39936;51.058;17.220;2022-11-20T06:13:59;101447.92;;;-8.07;100.00
54022;BME280;39936;51.058;17.220;2022-11-20T06:17:51;101459.05;;;-7.95;100.00
54022;BME280;39936;51.058;17.220;2022-11-20T06:25:43;101453.07;;;-7.82;100.00
54022;BME280;39936;51.058;17.220;2022-11-20T06:29:38;101448.68;;;-7.83;100.00
54022;BME280;39936;51.058;17.220;2022-11-20T06:33:47;101447.94;;;-7.95;100.00
54022;BME280;39936;51.058;17.220;2022-11-20T06:38:10;101452.08;;;-8.36;100.00
54022;BME280;39936;51.058;17.220;2022-11-20T06:41:55;101455.57;;;-8.39;100.00
54022;BME280;39936;51.058;17.220;2022-11-20T06:45:24;101460.25;;;-8.46;100.00
54022;BME280;39936;51.058;17.220;2022-11-20T06:48:57;101455.84;;;-8.42;100.00
54022;BME280;39936;51.058;17.220;2022-11-20T06:52:45;101450.42;;;-8.37;100.00
54022;BME280;39936;51.058;17.220;2022-11-20T06:56:34;101455.80;;;-8.26;100.00
54022;BME280;39936;51.058;17.220;2022-11-20T07:04:39;101464.60;;;-7.74;100.00
54022;BME280;39936;51.058;17.220;2022-11-20T07:08:16;101457.25;;;-7.49;100.00
54022;BME280;39936;51.058;17.220;2022-11-20T07:19:07;101449.52;;;-6.89;100.00
54022;BME280;39936;51.058;17.220;2022-11-20T07:26:32;101446.66;;;-6.56;100.00
54022;BME280;39936;51.058;17.220;2022-11-20T07:30:02;101439.30;;;-6.37;100.00
54022;BME280;39936;51.058;17.220;2022-11-20T07:34:13;101431.25;;;-6.20;100.00
54022;BME280;39936;51.058;17.220;2022-11-20T07:38:13;101423.18;;;-6.02;100.00
54022;BME280;39936;51.058;17.220;2022-11-20T07:41:44;101421.44;;;-5.75;100.00
54022;BME280;39936;51.058;17.220;2022-11-20T07:49:56;101417.13;;;-5.23;100.00
54022;BME280;39936;51.058;17.220;2022-11-20T07:57:09;101410.07;;;-4.89;100.00
54022;BME280;39936;51.058;17.220;2022-11-20T08:01:19;101403.45;;;-4.74;100.00
54022;BME280;39936;51.058;17.220;2022-11-20T08:04:32;101360.28;;;-4.86;100.00
54022;BME280;39936;51.058;17.220;2022-11-20T08:11:21;101401.38;;;-4.46;100.00
54022;BME280;39936;51.058;17.220;2022-11-20T08:15:09;101401.10;;;-4.36;100.00
54022;BME280;39936;51.058;17.220;2022-11-20T08:23:02;101389.45;;;-4.07;100.00
54022;BME280;39936;51.058;17.220;2022-11-20T08:27:04;101377.16;;;-3.96;100.00
54022;BME280;39936;51.058;17.220;2022-11-20T08:34:45;101376.48;;;-3.55;100.00
54022;BME280;39936;51.058;17.220;2022-11-20T08:39:49;101373.26;;;-3.43;100.00
54022;BME280;39936;51.058;17.220;2022-11-20T08:43:07;101363.64;;;-3.15;100.00
54022;BME280;39936;51.058;17.220;2022-11-20T08:56:03;101368.55;;;-2.65;100.00
54022;BME280;39936;51.058;17.220;2022-11-20T09:01:15;101354.81;;;-2.47;100.00
54022;BME280;39936;51.058;17.220;2022-11-20T09:05:12;101357.45;;;-2.43;97.79
54022;BME280;39936;51.058;17.220;2022-11-20T09:09:03;101359.73;;;-2.54;95.86
54022;BME280;39936;51.058;17.220;2022-11-20T09:12:43;101353.57;;;-2.40;96.28
54022;BME280;39936;51.058;17.220;2022-11-20T09:17:09;101348.48;;;-2.29;94.26
54022;BME280;39936;51.058;17.220;2022-11-20T09:20:22;101343.19;;;-2.48;93.39
54022;BME280;39936;51.058;17.220;2022-11-20T09:23:58;101338.66;;;-2.46;92.94
54022;BME280;39936;51.058;17.220;2022-11-20T09:27:58;101352.43;;;-2.58;92.18
54022;BME280;39936;51.058;17.220;2022-11-20T09:31:27;101343.39;;;-2.59;92.91
54022;BME280;39936;51.058;17.220;2022-11-20T09:35:27;101336.94;;;-2.51;92.86
54022;BME280;39936;51.058;17.220;2022-11-20T09:39:18;101330.45;;;-2.20;94.02
54022;BME280;39936;51.058;17.220;2022-11-20T09:43:41;101324.98;;;-2.03;92.65
54022;BME280;39936;51.058;17.220;2022-11-20T09:54:44;101299.84;;;-1.50;90.95
54022;BME280;39936;51.058;17.220;2022-11-20T09:58:50;101296.10;;;-1.36;90.47
54022;BME280;39936;51.058;17.220;2022-11-20T10:02:39;101295.34;;;-1.34;87.91
54022;BME280;39936;51.058;17.220;2022-11-20T10:06:17;101302.36;;;-1.56;87.67
54022;BME280;39936;51.058;17.220;2022-11-20T10:10:05;101300.12;;;-1.56;88.34
54022;BME280;39936;51.058;17.220;2022-11-20T10:17:34;101295.40;;;-1.43;89.03
54022;BME280;39936;51.058;17.220;2022-11-20T10:50:20;101236.52;;;-0.29;82.12
54022;BME280;39936;51.058;17.220;2022-11-20T11:17:50;101217.80;;;-0.15;81.59
54022;BME280;39936;51.058;17.220;2022-11-20T11:38:54;101194.66;;;0.17;80.68
54022;BME280;39936;51.058;17.220;2022-11-20T12:07:25;101118.02;;;0.03;76.08
54022;BME280;39936;51.058;17.220;2022-11-20T12:14:37;101143.71;;;0.49;75.13
54022;BME280;39936;51.058;17.220;2022-11-20T12:17:53;101136.62;;;0.65;76.06
54022;BME280;39936;51.058;17.220;2022-11-20T12:24:57;101091.33;;;0.15;74.40
54022;BME280;39936;51.058;17.220;2022-11-20T12:39:06;101144.13;;;0.60;74.59
54022;BME280;39936;51.058;17.220;2022-11-20T13:09:51;101097.25;;;0.59;72.57
54022;BME280;39936;51.058;17.220;2022-11-20T13:28:47;101076.86;;;0.99;72.69
54022;BME280;39936;51.058;17.220;2022-11-20T13:40:26;101064.73;;;0.84;75.94
54022;BME280;39936;51.058;17.220;2022-11-20T13:44:23;101066.27;;;0.77;76.65
54022;BME280;39936;51.058;17.220;2022-11-20T13:47:47;101057.41;;;0.87;76.98
54022;BME280;39936;51.058;17.220;2022-11-20T14:02:16;100965.95;;;0.03;78.41
54022;BME280;39936;51.058;17.220;2022-11-20T14:09:01;101048.91;;;0.55;79.88
54022;BME280;39936;51.058;17.220;2022-11-20T14:13:20;101048.27;;;0.41;80.76
54022;BME280;39936;51.058;17.220;2022-11-20T14:16:35;101045.76;;;0.17;81.73
54022;BME280;39936;51.058;17.220;2022-11-20T14:21:09;101050.10;;;0.03;82.48
54022;BME280;39936;51.058;17.220;2022-11-20T14:24:30;101046.65;;;0.01;82.82
54022;BME280;39936;51.058;17.220;2022-11-20T14:28:03;101012.23;;;-0.26;83.48
54022;BME280;39936;51.058;17.220;2022-11-20T14:39:00;101034.13;;;-0.45;85.84
54022;BME280;39936;51.058;17.220;2022-11-20T14:42:45;101039.04;;;-0.59;86.53
54022;BME280;39936;51.058;17.220;2022-11-20T14:49:30;101042.02;;;-0.72;86.58
54022;BME280;39936;51.058;17.220;2022-11-20T14:52:54;101039.60;;;-0.80;86.96
54022;BME280;39936;51.058;17.220;2022-11-20T14:56:02;101038.48;;;-0.90;87.41
54022;BME280;39936;51.058;17.220;2022-11-20T15:03:32;101037.18;;;-1.07;87.50
54022;BME280;39936;51.058;17.220;2022-11-20T15:06:55;101038.91;;;-1.25;88.64
54022;BME280;39936;51.058;17.220;2022-11-20T15:10:25;101040.82;;;-1.40;89.55
54022;BME280;39936;51.058;17.220;2022-11-20T15:16:59;101003.84;;;-1.72;89.22
54022;BME280;39936;51.058;17.220;2022-11-20T15:20:17;101045.55;;;-1.50;89.46
54022;BME280;39936;51.058;17.220;2022-11-20T15:24:04;101042.51;;;-1.54;89.17
54022;BME280;39936;51.058;17.220;2022-11-20T15:27:36;101041.39;;;-1.66;89.62
54022;BME280;39936;51.058;17.220;2022-11-20T15:30:48;101049.05;;;-1.77;90.45
54022;BME280;39936;51.058;17.220;2022-11-20T15:34:01;101053.27;;;-1.87;91.21
54022;BME280;39936;51.058;17.220;2022-11-20T15:37:14;101051.96;;;-1.96;91.71
54022;BME280;39936;51.058;17.220;2022-11-20T15:40:32;101053.16;;;-2.04;91.88
54022;BME280;39936;51.058;17.220;2022-11-20T15:44:50;101054.37;;;-2.12;93.11
54022;BME280;39936;51.058;17.220;2022-11-20T15:48:16;101046.96;;;-2.10;93.29
54022;BME280;39936;51.058;17.220;2022-11-20T15:52:16;101045.81;;;-2.10;93.37
54022;BME280;39936;51.058;17.220;2022-11-20T15:56:06;101031.31;;;-2.32;93.46
54022;BME280;39936;51.058;17.220;2022-11-20T15:59:32;101051.09;;;-2.36;93.80
54022;BME280;39936;51.058;17.220;2022-11-20T16:06:40;101052.46;;;-2.47;93.72
54022;BME280;39936;51.058;17.220;2022-11-20T16:09:51;101049.37;;;-2.56;93.44
54022;BME280;39936;51.058;17.220;2022-11-20T16:17:37;101044.42;;;-2.82;93.79
54022;BME280;39936;51.058;17.220;2022-11-20T16:21:12;101042.32;;;-2.90;93.95
54022;BME280;39936;51.058;17.220;2022-11-20T16:24:51;101040.16;;;-3.02;93.94
54022;BME280;39936;51.058;17.220;2022-11-20T16:28:37;101042.31;;;-3.16;94.25
54022;BME280;39936;51.058;17.220;2022-11-20T16:32:03;101046.72;;;-3.26;94.45
54022;BME280;39936;51.058;17.220;2022-11-20T16:35:56;101046.89;;;-3.29;94.91
54022;BME280;39936;51.058;17.220;2022-11-20T16:39:26;101045.70;;;-3.32;95.30
54022;BME280;39936;51.058;17.220;2022-11-20T16:42:45;101042.12;;;-3.34;95.68
54022;BME280;39936;51.058;17.220;2022-11-20T16:46:21;101037.66;;;-3.37;95.95
54022;BME280;39936;51.058;17.220;2022-11-20T16:51:36;101036.05;;;-3.43;96.51
54022;BME280;39936;51.058;17.220;2022-11-20T16:55:27;101034.17;;;-3.42;96.95
54022;BME280;39936;51.058;17.220;2022-11-20T17:02:10;101021.73;;;-3.53;97.54
54022;BME280;39936;51.058;17.220;2022-11-20T17:05:38;101033.84;;;-3.50;97.72
54022;BME280;39936;51.058;17.220;2022-11-20T17:12:30;101034.29;;;-3.47;98.45
54022;BME280;39936;51.058;17.220;2022-11-20T17:15:43;101035.53;;;-3.46;98.72
54022;BME280;39936;51.058;17.220;2022-11-20T17:19:04;101036.73;;;-3.50;98.95
54022;BME280;39936;51.058;17.220;2022-11-20T17:22:53;101042.89;;;-3.54;99.36
54022;BME280;39936;51.058;17.220;2022-11-20T17:26:29;101042.84;;;-3.59;100.00
54022;BME280;39936;51.058;17.220;2022-11-20T17:29:47;101049.55;;;-3.53;100.00
54022;BME280;39936;51.058;17.220;2022-11-20T17:32:57;101048.52;;;-3.46;100.00
54022;BME280;39936;51.058;17.220;2022-11-20T17:36:45;101053.03;;;-3.45;100.00
54022;BME280;39936;51.058;17.220;2022-11-20T17:40:01;100962.55;;;-4.06;100.00
54022;BME280;39936;51.058;17.220;2022-11-20T17:44:28;101018.44;;;-3.65;100.00
54022;BME280;39936;51.058;17.220;2022-11-20T17:47:55;101048.46;;;-3.25;100.00
54022;BME280;39936;51.058;17.220;2022-11-20T17:51:31;101047.34;;;-3.09;100.00
54022;BME280;39936;51.058;17.220;2022-11-20T17:55:00;101050.63;;;-2.98;100.00
54022;BME280;39936;51.058;17.220;2022-11-20T17:58:51;101058.78;;;-3.02;100.00
54022;BME280;39936;51.058;17.220;2022-11-20T18:02:39;101063.41;;;-3.13;100.00
54022;BME280;39936;51.058;17.220;2022-11-20T18:09:52;101050.22;;;-3.17;100.00
54022;BME280;39936;51.058;17.220;2022-11-20T18:13:33;101052.20;;;-3.25;100.00
54022;BME280;39936;51.058;17.220;2022-11-20T18:17:35;101036.09;;;-3.28;100.00
54022;BME280;39936;51.058;17.220;2022-11-20T18:32:51;101028.72;;;-3.09;100.00
54022;BME280;39936;51.058;17.220;2022-11-20T18:36:30;101034.84;;;-3.02;100.00
54022;BME280;39936;51.058;17.220;2022-11-20T18:40:08;101041.94;;;-3.04;100.00
54022;BME280;39936;51.058;17.220;2022-11-20T18:43:22;101042.91;;;-3.03;100.00
54022;BME280;39936;51.058;17.220;2022-11-20T18:46:49;101043.52;;;-3.02;100.00
54022;BME280;39936;51.058;17.220;2022-11-20T18:50:12;101047.84;;;-3.03;100.00
54022;BME280;39936;51.058;17.220;2022-11-20T18:53:28;101052.72;;;-3.07;100.00
54022;BME280;39936;51.058;17.220;2022-11-20T18:56:43;101052.73;;;-3.11;100.00
54022;BME280;39936;51.058;17.220;2022-11-20T19:00:43;101059.66;;;-3.21;100.00
54022;BME280;39936;51.058;17.220;2022-11-20T19:03:50;101058.72;;;-3.27;100.00
54022;BME280;39936;51.058;17.220;2022-11-20T19:07:26;101058.50;;;-3.29;100.00
54022;BME280;39936;51.058;17.220;2022-11-20T19:10:31;101058.72;;;-3.29;100.00
54022;BME280;39936;51.058;17.220;2022-11-20T19:14:02;101051.82;;;-3.26;100.00
54022;BME280;39936;51.058;17.220;2022-11-20T19:17:13;101044.23;;;-3.24;100.00
54022;BME280;39936;51.058;17.220;2022-11-20T19:20:43;101041.18;;;-3.25;100.00
54022;BME280;39936;51.058;17.220;2022-11-20T19:25:08;101051.97;;;-3.39;100.00
54022;BME280;39936;51.058;17.220;2022-11-20T19:28:47;101053.56;;;-3.39;100.00
54022;BME280;39936;51.058;17.220;2022-11-20T19:32:15;101059.26;;;-3.38;100.00
54022;BME280;39936;51.058;17.220;2022-11-20T19:35:46;101059.95;;;-3.41;100.00
54022;BME280;39936;51.058;17.220;2022-11-20T19:39:23;101059.55;;;-3.36;100.00
54022;BME280;39936;51.058;17.220;2022-11-20T19:42:35;101066.45;;;-3.28;100.00
54022;BME280;39936;51.058;17.220;2022-11-20T19:45:44;101064.11;;;-3.21;100.00
54022;BME280;39936;51.058;17.220;2022-11-20T19:49:31;101064.02;;;-3.16;100.00
54022;BME280;39936;51.058;17.220;2022-11-20T19:52:55;101060.05;;;-3.10;100.00
54022;BME280;39936;51.058;17.220;2022-11-20T19:56:58;101057.27;;;-3.16;100.00
54022;BME280;39936;51.058;17.220;2022-11-20T20:00:20;101058.85;;;-3.09;100.00
54022;BME280;39936;51.058;17.220;2022-11-20T20:03:58;101058.50;;;-3.07;100.00
54022;BME280;39936;51.058;17.220;2022-11-20T20:07:20;101066.55;;;-3.00;100.00
54022;BME280;39936;51.058;17.220;2022-11-20T20:10:27;101077.80;;;-2.96;100.00
54022;BME280;39936;51.058;17.220;2022-11-20T20:14:14;101087.16;;;-3.00;100.00
54022;BME280;39936;51.058;17.220;2022-11-20T20:17:34;101091.91;;;-3.17;100.00
54022;BME280;39936;51.058;17.220;2022-11-20T20:20:43;101088.54;;;-3.16;100.00
54022;BME280;39936;51.058;17.220;2022-11-20T20:24:20;101087.09;;;-3.04;100.00
54022;BME280;39936;51.058;17.220;2022-11-20T20:27:37;101084.48;;;-3.05;100.00
54022;BME280;39936;51.058;17.220;2022-11-20T20:30:44;101077.23;;;-3.02;100.00
54022;BME280;39936;51.058;17.220;2022-11-20T20:34:30;101075.73;;;-2.95;100.00
54022;BME280;39936;51.058;17.220;2022-11-20T20:38:05;101076.21;;;-2.85;100.00
54022;BME280;39936;51.058;17.220;2022-11-20T20:41:19;101080.62;;;-2.83;100.00
54022;BME280;39936;51.058;17.220;2022-11-20T20:44:34;101078.52;;;-2.87;100.00
54022;BME280;39936;51.058;17.220;2022-11-20T20:48:27;101045.04;;;-3.16;100.00
54022;BME280;39936;51.058;17.220;2022-11-20T20:51:40;101062.84;;;-3.02;100.00
54022;BME280;39936;51.058;17.220;2022-11-20T20:55:28;101055.41;;;-3.04;100.00
54022;BME280;39936;51.058;17.220;2022-11-20T20:58:49;101058.44;;;-3.04;100.00
54022;BME280;39936;51.058;17.220;2022-11-20T21:02:24;101060.77;;;-3.16;100.00
54022;BME280;39936;51.058;17.220;2022-11-20T21:06:03;101066.17;;;-3.22;100.00
54022;BME280;39936;51.058;17.220;2022-11-20T21:09:22;101062.29;;;-3.47;100.00
54022;BME280;39936;51.058;17.220;2022-11-20T21:13:05;101065.15;;;-3.52;100.00
54022;BME280;39936;51.058;17.220;2022-11-20T21:17:04;101067.48;;;-3.52;100.00
54022;BME280;39936;51.058;17.220;2022-11-20T21:24:42;101057.56;;;-3.76;100.00
54022;BME280;39936;51.058;17.220;2022-11-20T21:28:35;101079.03;;;-3.82;100.00
54022;BME280;39936;51.058;17.220;2022-11-20T21:32:16;101078.84;;;-3.88;100.00
54022;BME280;39936;51.058;17.220;2022-11-20T21:35:45;101077.03;;;-3.92;100.00
54022;BME280;39936;51.058;17.220;2022-11-20T21:39:02;101076.90;;;-3.99;100.00
54022;BME280;39936;51.058;17.220;2022-11-20T21:42:37;101074.15;;;-4.04;100.00
54022;BME280;39936;51.058;17.220;2022-11-20T21:46:43;101073.55;;;-4.13;100.00
54022;BME280;39936;51.058;17.220;2022-11-20T21:50:10;101062.67;;;-4.25;100.00
54022;BME280;39936;51.058;17.220;2022-11-20T21:53:16;101055.63;;;-4.30;100.00
54022;BME280;39936;51.058;17.220;2022-11-20T21:56:27;101057.98;;;-4.36;100.00
54022;BME280;39936;51.058;17.220;2022-11-20T21:59:48;101057.68;;;-4.41;100.00
54022;BME280;39936;51.058;17.220;2022-11-20T22:02:57;101054.09;;;-4.48;100.00
54022;BME280;39936;51.058;17.220;2022-11-20T22:06:11;101051.50;;;-4.55;100.00
54022;BME280;39936;51.058;17.220;2022-11-20T22:09:27;101050.03;;;-4.62;100.00
54022;BME280;39936;51.058;17.220;2022-11-20T22:13:28;100959.38;;;-5.43;100.00
54022;BME280;39936;51.058;17.220;2022-11-20T22:17:33;101057.01;;;-4.77;100.00
54022;BME280;39936;51.058;17.220;2022-11-20T22:21:04;101053.79;;;-4.81;100.00
54022;BME280;39936;51.058;17.220;2022-11-20T22:24:48;101049.05;;;-4.86;100.00
54022;BME280;39936;51.058;17.220;2022-11-20T22:28:09;101053.86;;;-4.91;100.00
54022;BME280;39936;51.058;17.220;2022-11-20T22:31:52;101059.95;;;-4.92;100.00
54022;BME280;39936;51.058;17.220;2022-11-20T22:36:32;101061.06;;;-4.89;100.00
54022;BME280;39936;51.058;17.220;2022-11-20T22:40:23;101061.35;;;-4.84;100.00
54022;BME280;39936;51.058;17.220;2022-11-20T22:45:04;101066.17;;;-4.85;100.00
54022;BME280;39936;51.058;17.220;2022-11-20T22:48:34;101058.90;;;-4.80;100.00
54022;BME280;39936;51.058;17.220;2022-11-20T22:59:49;101049.01;;;-4.81;100.00
54022;BME280;39936;51.058;17.220;2022-11-20T23:07:01;101060.30;;;-4.88;100.00
54022;BME280;39936;51.058;17.220;2022-11-20T23:10:46;101049.34;;;-5.03;100.00
54022;BME280;39936;51.058;17.220;2022-11-20T23:14:23;101038.71;;;-5.27;100.00
54022;BME280;39936;51.058;17.220;2022-11-20T23:18:08;101030.78;;;-5.33;100.00
54022;BME280;39936;51.058;17.220;2022-11-20T23:21:46;101025.42;;;-5.33;100.00
54022;BME280;39936;51.058;17.220;2022-11-20T23:25:12;101021.85;;;-5.26;100.00
54022;BME280;39936;51.058;17.220;2022-11-20T23:28:55;101023.11;;;-5.18;100.00
54022;BME280;39936;51.058;17.220;2022-11-20T23:33:37;100983.59;;;-5.33;100.00
54022;BME280;39936;51.058;17.220;2022-11-20T23:37:11;101005.44;;;-5.07;100.00
54022;BME280;39936;51.058;17.220;2022-11-20T23:41:01;101000.57;;;-5.04;100.00
54022;BME280;39936;51.058;17.220;2022-11-20T23:44:45;100999.62;;;-5.04;100.00
54022;BME280;39936;51.058;17.220;2022-11-20T23:48:29;101000.88;;;-5.05;100.00
54022;BME280;39936;51.058;17.220;2022-11-20T23:51:48;100995.68;;;-5.08;100.00
54022;BME280;39936;51.058;17.220;2022-11-20T23:55:13;100994.76;;;-5.12;100.00
54022;BME280;39936;51.058;17.220;2022-11-20T23:58:41;101000.11;;;-5.16;100.00
